Hlavní strana
METAR-TAF:

METAR-TAF

Letiště :

Magnitogorsk, Rusko

zeměpisná šířka: 53-23-36N, zeměpisná délka: 058-45-24E, výška: 436 m

Aktuální stav počasí

Zpráva byla vytvořena před 44 minutami, v 04:30 UTC
Jižní vítr 8 kt
Teplota -13°C
Vlhkost vzduchu 72%
Tlak 1018 hPa
Viditelnost 10 km a více
Skoro jasno ve výšce 4000 ft

METAR: USCM 240430Z 19004MPS 9999 FEW040 M13/M17 Q1018 R18/090060 TEMPO 26013MPS RMK QFE726

Čas: 10:14 (05:14 UTC)

Předpověď počasí

Zpráva byla vytvořena před 3 hodinami a 14 minutami, v 02:00 UTC
Předpověď platná od 24 v 03 UTC do 24 v 12 UTC
Západojihozápadní vítr 10 kt s nárazy do 25 kt
Viditelnost 10 km a více
Oblačno až skoro zataženo ve výšce 2000 ft, Cumulonimbus.
Dočasný
od 24 v 03 UTC do 24 v 12 UTC
Viditelnost: 3100 m
Oblačno až skoro zataženo ve výšce 1100 ft, Cumulonimbus.
slabé sněhové přeháňky

TAF: USCM 240200Z 2403/2412 25005G13MPS 9999 BKN020CB TEMPO 2403/2412 3100 -SHSN BKN011CB

Stav a předpovědi počasí z více než 4 000 letišť (zprávy METAR a TAF).

Červené a žluté tečky na mapě představují dostupné meteorologické stanice.

Když kurzor umístíte na tečku, zobrazí se název stanice.

Pak kliknutím zobrazíte stav a předpověď počasí.

Chcete-li změnit mapu, kliknutím na zelené tlačítko se znaménkem +mapu přiblížíte, kliknutím na zelené tlačítko se znaménkem – mapu oddálíte a kliknutím na zelené šipky přejdete na sousední mapy.


METAR-TAF: